createdAt,value
2017-07-12T00:00:50.320Z,1001.56
2017-07-12T00:01:50.408Z,1001.56
2017-07-12T00:02:50.405Z,1001.53
2017-07-12T00:03:50.406Z,1001.48
2017-07-12T00:04:50.406Z,1001.50
2017-07-12T00:05:50.422Z,1001.46
2017-07-12T00:06:50.326Z,1001.43
2017-07-12T00:07:50.419Z,1001.48
2017-07-12T00:08:50.405Z,1001.45
2017-07-12T00:09:50.407Z,1001.42
2017-07-12T00:10:50.381Z,1001.42
2017-07-12T00:11:50.421Z,1001.44
2017-07-12T00:12:50.405Z,1001.42
2017-07-12T00:13:50.327Z,1001.43
2017-07-12T00:14:50.373Z,1001.37
2017-07-12T00:15:50.415Z,1001.37
2017-07-12T00:16:50.329Z,1001.35
2017-07-12T00:17:50.417Z,1001.38
2017-07-12T00:18:50.415Z,1001.38
2017-07-12T00:19:50.419Z,1001.37
2017-07-12T00:20:50.415Z,1001.36
2017-07-12T00:21:50.409Z,1001.35
2017-07-12T00:22:50.395Z,1001.39
2017-07-12T00:23:50.327Z,1001.38
2017-07-12T00:24:50.417Z,1001.39
2017-07-12T00:25:50.419Z,1001.39
2017-07-12T00:26:50.336Z,1001.36
2017-07-12T00:27:50.409Z,1001.37
2017-07-12T00:28:50.443Z,1001.38
2017-07-12T00:29:50.421Z,1001.33
2017-07-12T00:30:50.422Z,1001.39
2017-07-12T00:31:50.341Z,1001.35
2017-07-12T00:32:50.425Z,1001.36
2017-07-12T00:33:50.351Z,1001.37
2017-07-12T00:34:50.419Z,1001.34
2017-07-12T00:35:50.424Z,1001.31
2017-07-12T00:36:50.341Z,1001.32
2017-07-12T00:37:50.425Z,1001.33
2017-07-12T00:38:50.345Z,1001.32
2017-07-12T00:39:50.420Z,1001.34
2017-07-12T00:40:51.432Z,1001.32
2017-07-12T00:41:50.342Z,1001.31
2017-07-12T00:42:50.495Z,1001.29
2017-07-12T00:43:50.350Z,1001.26
2017-07-12T00:44:50.418Z,1001.26
2017-07-12T00:45:50.398Z,1001.26
2017-07-12T00:46:50.418Z,1001.26
2017-07-12T00:47:50.400Z,1001.24
2017-07-12T00:48:50.406Z,1001.26
2017-07-12T00:49:50.406Z,1001.18
2017-07-12T00:50:50.509Z,1001.14
2017-07-12T00:51:50.507Z,1001.13
2017-07-12T00:52:50.412Z,1001.12
2017-07-12T00:53:50.408Z,1001.11
2017-07-12T00:54:50.408Z,1001.08
2017-07-12T00:55:50.412Z,1001.09
2017-07-12T00:56:50.511Z,1001.12
2017-07-12T00:57:50.413Z,1001.14
2017-07-12T00:58:50.410Z,1001.07
2017-07-12T00:59:50.410Z,1001.08
2017-07-12T01:00:50.409Z,1001.08
2017-07-12T01:01:50.410Z,1001.05
2017-07-12T01:02:50.409Z,1001.08
2017-07-12T01:03:50.413Z,1001.06
2017-07-12T01:04:50.416Z,1001.05
2017-07-12T01:05:50.414Z,1001.02
2017-07-12T01:06:50.414Z,1001.01
2017-07-12T01:07:50.413Z,1000.99
2017-07-12T01:08:50.437Z,1001.03
2017-07-12T01:09:50.417Z,1000.97
2017-07-12T01:10:50.417Z,1000.95
2017-07-12T01:11:50.418Z,1000.95
2017-07-12T01:12:50.421Z,1000.95
2017-07-12T01:13:50.417Z,1000.96
2017-07-12T01:14:50.418Z,1000.95
2017-07-12T01:15:50.422Z,1000.96
2017-07-12T01:16:50.521Z,1000.95
2017-07-12T01:17:50.421Z,1000.93
2017-07-12T01:18:50.425Z,1000.96
2017-07-12T01:19:50.422Z,1000.96
2017-07-12T01:20:50.422Z,1000.91
2017-07-12T01:21:50.427Z,1000.92
2017-07-12T01:22:50.423Z,1000.94
2017-07-12T01:23:50.426Z,1000.91
2017-07-12T01:24:50.422Z,1000.89
2017-07-12T01:25:50.428Z,1000.95
2017-07-12T01:26:50.427Z,1000.95
2017-07-12T01:27:50.428Z,1000.91
2017-07-12T01:28:50.461Z,1000.95
2017-07-12T01:29:50.451Z,1000.95
2017-07-12T01:30:50.447Z,1000.97
2017-07-12T01:31:50.374Z,1000.89
2017-07-12T01:32:50.460Z,1000.90
2017-07-12T01:33:50.456Z,1000.87
2017-07-12T01:34:50.486Z,1000.89
2017-07-12T01:35:50.379Z,1000.85
2017-07-12T01:36:50.459Z,1000.90
2017-07-12T01:37:50.459Z,1000.87
2017-07-12T01:38:50.379Z,1000.82
2017-07-12T01:39:50.471Z,1000.80
2017-07-12T01:40:50.445Z,1000.78
2017-07-12T01:41:50.451Z,1000.77
2017-07-12T01:42:50.462Z,1000.75
2017-07-12T01:43:50.467Z,1000.77
2017-07-12T01:44:50.474Z,1000.80
2017-07-12T01:45:50.379Z,1000.77
2017-07-12T01:46:50.387Z,1000.74
2017-07-12T01:47:50.429Z,1000.71
2017-07-12T01:48:50.376Z,1000.71
2017-07-12T01:49:50.418Z,1000.72
2017-07-12T01:50:50.378Z,1000.68
2017-07-12T01:51:50.377Z,1000.64
2017-07-12T01:52:50.365Z,1000.64
2017-07-12T01:53:50.376Z,1000.59
2017-07-12T01:54:50.474Z,1000.54
2017-07-12T01:55:50.380Z,1000.54
2017-07-12T01:56:50.384Z,1000.57
2017-07-12T01:57:50.412Z,1000.55
2017-07-12T01:58:50.456Z,1000.49
2017-07-12T01:59:50.475Z,1000.54
2017-07-12T02:00:50.389Z,1000.56
2017-07-12T02:01:50.480Z,1000.60
2017-07-12T02:02:50.403Z,1000.61
2017-07-12T02:03:50.440Z,1000.63
2017-07-12T02:04:50.476Z,1000.62
2017-07-12T02:05:50.439Z,1000.65
2017-07-12T02:06:50.389Z,1000.63
2017-07-12T02:07:50.390Z,1000.65
2017-07-12T02:08:50.475Z,1000.58
2017-07-12T02:09:50.439Z,1000.58
2017-07-12T02:10:50.486Z,1000.62
2017-07-12T02:11:50.480Z,1000.62
2017-07-12T02:12:50.401Z,1000.56
2017-07-12T02:13:50.389Z,1000.60
2017-07-12T02:14:50.403Z,1000.58
2017-07-12T02:15:50.469Z,1000.58
2017-07-12T02:16:50.475Z,1000.53
2017-07-12T02:17:50.444Z,1000.53
2017-07-12T02:18:50.468Z,1000.50
2017-07-12T02:19:50.470Z,1000.52
2017-07-12T02:20:50.512Z,1000.51
2017-07-12T02:22:50.469Z,1000.46
2017-07-12T02:24:50.473Z,1000.47
2017-07-12T02:25:50.470Z,1000.49
2017-07-12T02:26:50.444Z,1000.44
2017-07-12T02:27:50.471Z,1000.42
2017-07-12T02:28:50.467Z,1000.41
2017-07-12T02:29:50.458Z,1000.40
2017-07-12T02:30:50.459Z,1000.40
2017-07-12T02:31:50.461Z,1000.37
2017-07-12T02:32:50.462Z,1000.32
2017-07-12T02:33:50.466Z,1000.28
2017-07-12T02:34:50.462Z,1000.30
2017-07-12T02:35:50.460Z,1000.28
2017-07-12T02:36:50.465Z,1000.25
2017-07-12T02:37:50.465Z,1000.25
2017-07-12T02:38:50.408Z,1000.31
2017-07-12T02:39:50.413Z,1000.29
2017-07-12T02:40:50.497Z,1000.28
2017-07-12T02:41:50.414Z,1000.28
2017-07-12T02:42:50.462Z,1000.36
2017-07-12T02:43:50.497Z,1000.30
2017-07-12T02:44:50.492Z,1000.27
2017-07-12T02:45:50.501Z,1000.30
2017-07-12T02:46:50.463Z,1000.31
2017-07-12T02:47:50.484Z,1000.31
2017-07-12T02:48:50.420Z,1000.29
2017-07-12T02:49:50.500Z,1000.32
2017-07-12T02:50:50.416Z,1000.29
2017-07-12T02:51:50.497Z,1000.31
2017-07-12T02:52:50.482Z,1000.28
2017-07-12T02:53:50.513Z,1000.32
2017-07-12T02:54:50.509Z,1000.31
2017-07-12T02:55:50.515Z,1000.26
2017-07-12T02:56:50.492Z,1000.32
2017-07-12T02:57:50.417Z,1000.30
2017-07-12T02:58:50.426Z,1000.33
2017-07-12T02:59:50.509Z,1000.27
2017-07-12T03:00:50.477Z,1000.28
2017-07-12T03:01:50.480Z,1000.29
2017-07-12T03:02:50.479Z,1000.26
2017-07-12T03:03:50.481Z,1000.32
2017-07-12T03:04:50.482Z,1000.26
2017-07-12T03:05:50.478Z,1000.23
2017-07-12T03:06:50.482Z,1000.22
2017-07-12T03:07:50.485Z,1000.18
2017-07-12T03:08:50.497Z,1000.17
2017-07-12T03:09:50.512Z,1000.18
2017-07-12T03:10:50.493Z,1000.22
2017-07-12T03:11:50.501Z,1000.13
2017-07-12T03:12:50.493Z,1000.16
2017-07-12T03:13:50.496Z,1000.13
2017-07-12T03:14:50.497Z,1000.09
2017-07-12T03:15:50.505Z,1000.10
2017-07-12T03:16:50.500Z,1000.09
2017-07-12T03:17:50.500Z,1000.09
2017-07-12T03:18:50.519Z,1000.05
2017-07-12T03:19:50.521Z,1000.00
2017-07-12T03:20:50.439Z,1000.04
2017-07-12T03:21:50.519Z,1000.08
2017-07-12T03:22:50.528Z,1000.07
2017-07-12T03:23:50.440Z,1000.07
2017-07-12T03:24:50.430Z,1000.05
2017-07-12T03:26:50.522Z,1000.10
2017-07-12T03:27:50.436Z,1000.08
2017-07-12T03:28:50.508Z,1000.10
2017-07-12T03:29:50.587Z,1000.09
2017-07-12T03:30:50.505Z,1000.07
2017-07-12T03:31:50.431Z,1000.07
2017-07-12T03:32:50.510Z,1000.05
2017-07-12T03:33:50.515Z,1000.08
2017-07-12T03:34:50.508Z,1000.05
2017-07-12T03:35:50.505Z,999.98
2017-07-12T03:36:50.506Z,1000.02
2017-07-12T03:37:50.510Z,1000.05
2017-07-12T03:38:50.511Z,999.98
2017-07-12T03:39:50.501Z,1000.00
2017-07-12T03:40:50.501Z,999.95
2017-07-12T03:41:50.506Z,999.95
2017-07-12T03:42:50.502Z,999.95
2017-07-12T03:43:50.501Z,999.98
2017-07-12T03:44:50.503Z,1000.00
2017-07-12T03:46:50.506Z,999.99
2017-07-12T03:48:50.523Z,1000.00
2017-07-12T03:49:50.457Z,999.99
2017-07-12T03:50:50.532Z,1000.02
2017-07-12T03:51:50.530Z,1000.04
2017-07-12T03:52:50.539Z,1000.10
2017-07-12T03:53:50.503Z,1000.08
2017-07-12T03:54:50.458Z,1000.10
2017-07-12T03:55:50.500Z,1000.10
2017-07-12T03:56:50.537Z,1000.07
2017-07-12T03:57:50.504Z,1000.09
2017-07-12T03:58:50.452Z,1000.08
2017-07-12T03:59:50.511Z,1000.01
2017-07-12T04:00:50.540Z,1000.03
2017-07-12T04:01:50.523Z,1000.04
2017-07-12T04:02:50.525Z,1000.04
2017-07-12T04:03:50.531Z,1000.04
2017-07-12T04:04:50.527Z,1000.04
2017-07-12T04:05:50.504Z,999.97
2017-07-12T04:06:50.579Z,999.95
2017-07-12T04:07:50.534Z,999.91
2017-07-12T04:08:50.517Z,999.94
2017-07-12T04:09:50.520Z,999.89
2017-07-12T04:10:50.522Z,999.88
2017-07-12T04:11:50.524Z,999.98
2017-07-12T04:12:50.520Z,999.99
2017-07-12T04:13:50.525Z,999.98
2017-07-12T04:14:50.522Z,999.98
2017-07-12T04:15:50.522Z,999.96
2017-07-12T04:16:50.526Z,999.95
2017-07-12T04:17:50.524Z,999.88
2017-07-12T04:18:50.471Z,999.89
2017-07-12T04:19:50.513Z,999.92
2017-07-12T04:20:50.459Z,999.87
2017-07-12T04:21:50.537Z,999.84
2017-07-12T04:22:50.556Z,999.80
2017-07-12T04:23:50.530Z,999.79
2017-07-12T04:24:50.559Z,999.79
2017-07-12T04:25:50.521Z,999.84
2017-07-12T04:26:50.542Z,999.84
2017-07-12T04:27:50.478Z,999.88
2017-07-12T04:28:50.472Z,999.83
2017-07-12T04:29:50.475Z,999.81
2017-07-12T04:30:50.477Z,999.78
2017-07-12T04:31:50.569Z,999.81
2017-07-12T04:32:50.543Z,999.80
2017-07-12T04:33:50.560Z,999.77
2017-07-12T04:34:50.546Z,999.85
2017-07-12T04:35:50.573Z,999.83
2017-07-12T04:36:50.568Z,999.83
2017-07-12T04:37:50.543Z,999.85
2017-07-12T04:38:50.549Z,999.85
2017-07-12T04:39:50.552Z,999.83
2017-07-12T04:40:50.548Z,999.84
2017-07-12T04:41:50.490Z,999.81
2017-07-12T04:42:50.549Z,999.79
2017-07-12T04:43:50.548Z,999.76
2017-07-12T04:44:50.549Z,999.74
2017-07-12T04:45:50.549Z,999.76
2017-07-12T04:46:50.550Z,999.78
2017-07-12T04:47:50.548Z,999.80
2017-07-12T04:48:50.490Z,999.74
2017-07-12T04:49:50.567Z,999.76
2017-07-12T04:50:50.571Z,999.69
2017-07-12T04:51:50.572Z,999.71
2017-07-12T04:52:50.570Z,999.68
2017-07-12T04:53:50.547Z,999.68
2017-07-12T04:54:50.502Z,999.68
2017-07-12T04:55:50.574Z,999.69
2017-07-12T04:56:50.598Z,999.65
2017-07-12T04:57:51.718Z,999.65
2017-07-12T04:58:50.574Z,999.67
2017-07-12T04:59:50.553Z,999.62
2017-07-12T05:00:50.586Z,999.65
2017-07-12T05:01:50.499Z,999.67
2017-07-12T05:02:50.486Z,999.63
2017-07-12T05:03:50.578Z,999.64
2017-07-12T05:04:50.499Z,999.64
2017-07-12T05:05:50.585Z,999.67
2017-07-12T05:06:50.556Z,999.62
2017-07-12T05:07:50.584Z,999.67
2017-07-12T05:08:50.561Z,999.62
2017-07-12T05:09:50.561Z,999.55
2017-07-12T05:10:50.564Z,999.55
2017-07-12T05:11:50.584Z,999.55
2017-07-12T05:12:50.565Z,999.51
2017-07-12T05:13:50.562Z,999.56
2017-07-12T05:14:50.572Z,999.52
2017-07-12T05:15:50.567Z,999.53
2017-07-12T05:16:50.560Z,999.53
2017-07-12T05:17:50.566Z,999.52
2017-07-12T05:18:50.566Z,999.48
2017-07-12T05:19:50.589Z,999.56
2017-07-12T05:20:50.566Z,999.52
2017-07-12T05:21:50.507Z,999.55
2017-07-12T05:22:50.592Z,999.52
2017-07-12T05:23:50.594Z,999.53
2017-07-12T05:24:50.576Z,999.47
2017-07-12T05:25:50.601Z,999.51
2017-07-12T05:26:50.568Z,999.54
2017-07-12T05:27:50.584Z,999.56
2017-07-12T05:28:50.594Z,999.58
2017-07-12T05:29:50.572Z,999.54
2017-07-12T05:30:50.573Z,999.50
2017-07-12T05:31:50.575Z,999.40
2017-07-12T05:32:50.572Z,999.41
2017-07-12T05:33:50.578Z,999.41
2017-07-12T05:34:50.572Z,999.38
2017-07-12T05:35:50.577Z,999.36
2017-07-12T05:36:50.575Z,999.40
2017-07-12T05:37:50.578Z,999.44
2017-07-12T05:38:50.581Z,999.42
2017-07-12T05:39:50.516Z,999.49
2017-07-12T05:40:50.607Z,999.46
2017-07-12T05:41:50.519Z,999.51
2017-07-12T05:42:50.595Z,999.47
2017-07-12T05:43:50.559Z,999.56
2017-07-12T05:44:50.609Z,999.56
2017-07-12T05:45:50.601Z,999.49
2017-07-12T05:46:50.603Z,999.53
2017-07-12T05:47:50.527Z,999.53
2017-07-12T05:48:50.607Z,999.50
2017-07-12T05:49:50.583Z,999.47
2017-07-12T05:50:50.586Z,999.46
2017-07-12T05:51:50.590Z,999.51
2017-07-12T05:52:50.589Z,999.50
2017-07-12T05:53:50.587Z,999.44
2017-07-12T05:54:50.590Z,999.45
2017-07-12T05:55:50.596Z,999.47
2017-07-12T05:56:50.590Z,999.48
2017-07-12T05:57:50.589Z,999.48
2017-07-12T05:58:50.513Z,999.44
2017-07-12T05:59:50.613Z,999.38
2017-07-12T06:00:50.523Z,999.41
2017-07-12T06:01:50.717Z,999.40
2017-07-12T06:02:50.611Z,999.36
2017-07-12T06:03:50.569Z,999.35
2017-07-12T06:04:50.614Z,999.37
2017-07-12T06:05:50.525Z,999.31
2017-07-12T06:06:50.521Z,999.34
2017-07-12T06:07:50.614Z,999.29
2017-07-12T06:08:50.617Z,999.28
2017-07-12T06:09:50.614Z,999.26
2017-07-12T06:10:50.596Z,999.23
2017-07-12T06:11:50.603Z,999.27
2017-07-12T06:12:50.601Z,999.28
2017-07-12T06:13:50.602Z,999.23
2017-07-12T06:14:50.603Z,999.25
2017-07-12T06:15:50.599Z,999.31
2017-07-12T06:16:50.603Z,999.19
2017-07-12T06:17:50.601Z,999.23
2017-07-12T06:18:50.628Z,999.20
2017-07-12T06:19:50.537Z,999.21
2017-07-12T06:20:50.571Z,999.20
2017-07-12T06:21:50.575Z,999.22
2017-07-12T06:22:50.533Z,999.21
2017-07-12T06:23:50.577Z,999.16
2017-07-12T06:24:50.526Z,999.17
2017-07-12T06:25:50.572Z,999.17
2017-07-12T06:26:50.566Z,999.13
2017-07-12T06:27:50.533Z,999.15
2017-07-12T06:28:50.502Z,999.12
2017-07-12T06:29:50.553Z,999.09
2017-07-12T06:30:50.625Z,999.10
2017-07-12T06:31:50.606Z,998.99
2017-07-12T06:32:50.605Z,998.97
2017-07-12T06:33:50.604Z,999.07
2017-07-12T06:34:50.545Z,998.99
2017-07-12T06:35:50.630Z,999.02
2017-07-12T06:36:50.686Z,998.98
2017-07-12T06:37:50.550Z,999.02
2017-07-12T06:38:50.631Z,998.92
2017-07-12T06:39:50.600Z,998.92
2017-07-12T06:40:50.602Z,998.91
2017-07-12T06:41:50.599Z,998.87
2017-07-12T06:42:50.601Z,998.91
2017-07-12T06:43:50.707Z,998.85
2017-07-12T06:44:50.607Z,998.83
2017-07-12T06:45:50.605Z,998.84
2017-07-12T06:46:50.606Z,998.82
2017-07-12T06:47:50.605Z,998.83
2017-07-12T06:48:50.604Z,998.80
2017-07-12T06:49:50.648Z,998.81
2017-07-12T06:50:50.554Z,998.80
2017-07-12T06:51:50.638Z,998.86
2017-07-12T06:52:50.736Z,998.76
2017-07-12T06:53:50.551Z,998.81
2017-07-12T06:54:50.638Z,998.81
2017-07-12T06:55:50.606Z,998.78
2017-07-12T06:56:50.642Z,998.80
2017-07-12T06:57:50.564Z,998.80
2017-07-12T06:58:50.602Z,998.83
2017-07-12T06:59:50.627Z,998.84
2017-07-12T07:00:50.628Z,998.84
2017-07-12T07:01:50.626Z,998.78
2017-07-12T07:02:50.626Z,998.75
2017-07-12T07:03:50.629Z,998.76
2017-07-12T07:04:50.622Z,998.70
2017-07-12T07:05:50.626Z,998.73
2017-07-12T07:06:50.627Z,998.75
2017-07-12T07:07:50.627Z,998.69
2017-07-12T07:08:50.630Z,998.69
2017-07-12T07:09:50.655Z,998.64
2017-07-12T07:10:50.557Z,998.60
2017-07-12T07:11:50.634Z,998.63
2017-07-12T07:12:50.561Z,998.61
2017-07-12T07:13:50.615Z,998.55
2017-07-12T07:14:50.649Z,998.61
2017-07-12T07:15:50.611Z,998.58
2017-07-12T07:16:50.649Z,998.54
2017-07-12T07:17:50.659Z,998.56
2017-07-12T07:18:50.564Z,998.59
2017-07-12T07:19:50.638Z,998.55
2017-07-12T07:20:50.639Z,998.55
2017-07-12T07:21:50.654Z,998.47
2017-07-12T07:22:50.638Z,998.52
2017-07-12T07:23:50.638Z,998.58
2017-07-12T07:24:50.638Z,998.50
2017-07-12T07:25:50.641Z,998.52
2017-07-12T07:26:50.643Z,998.54
2017-07-12T07:27:50.639Z,998.51
2017-07-12T07:28:50.640Z,998.59
2017-07-12T07:29:50.663Z,998.55
2017-07-12T07:30:50.628Z,998.51
2017-07-12T07:31:50.599Z,998.51
2017-07-12T07:32:50.586Z,998.53
2017-07-12T07:33:50.585Z,998.58
2017-07-12T07:34:50.664Z,998.55
2017-07-12T07:35:50.628Z,998.58
2017-07-12T07:36:50.650Z,998.54
2017-07-12T07:37:50.666Z,998.54
2017-07-12T07:38:50.672Z,998.48
2017-07-12T07:39:50.649Z,998.51
2017-07-12T07:40:50.653Z,998.51
2017-07-12T07:41:50.649Z,998.48
2017-07-12T07:42:50.652Z,998.44
2017-07-12T07:43:50.650Z,998.44
2017-07-12T07:44:50.737Z,998.39
2017-07-12T07:45:50.649Z,998.38
2017-07-12T07:46:50.650Z,998.35
2017-07-12T07:47:50.656Z,998.35
2017-07-12T07:48:50.648Z,998.34
2017-07-12T07:49:50.675Z,998.29
2017-07-12T07:50:50.675Z,998.32
2017-07-12T07:51:50.654Z,998.32
2017-07-12T07:52:50.592Z,998.34
2017-07-12T07:53:50.676Z,998.32
2017-07-12T07:54:50.681Z,998.30
2017-07-12T07:55:50.651Z,998.27
2017-07-12T07:56:50.678Z,998.29
2017-07-12T07:57:50.652Z,998.31
2017-07-12T07:58:50.673Z,998.29
2017-07-12T07:59:50.601Z,998.25
2017-07-12T08:00:50.678Z,998.21
2017-07-12T08:01:50.679Z,998.24
2017-07-12T08:02:50.684Z,998.19
2017-07-12T08:03:50.686Z,998.19
2017-07-12T08:04:50.593Z,998.14
2017-07-12T08:05:50.662Z,998.06
2017-07-12T08:06:50.691Z,998.03
2017-07-12T08:07:50.687Z,998.04
2017-07-12T08:08:50.662Z,998.06
2017-07-12T08:09:50.690Z,998.08
2017-07-12T08:10:50.686Z,998.05
2017-07-12T08:11:50.697Z,997.99
2017-07-12T08:12:50.608Z,998.06
2017-07-12T08:13:50.686Z,998.00
2017-07-12T08:14:50.676Z,997.99
2017-07-12T08:15:50.645Z,998.02
2017-07-12T08:16:50.682Z,998.02
2017-07-12T08:17:50.689Z,997.99
2017-07-12T08:18:50.663Z,997.96
2017-07-12T08:19:50.657Z,997.95
2017-07-12T08:20:50.656Z,997.99
2017-07-12T08:21:50.657Z,997.97
2017-07-12T08:22:50.658Z,997.91
2017-07-12T08:23:50.660Z,997.89
2017-07-12T08:24:50.658Z,997.84
2017-07-12T08:25:50.659Z,997.86
2017-07-12T08:26:50.660Z,997.83
2017-07-12T08:27:50.660Z,997.78
2017-07-12T08:28:50.663Z,997.79
2017-07-12T08:29:50.686Z,997.73
2017-07-12T08:30:50.683Z,997.79
2017-07-12T08:31:50.678Z,997.76
2017-07-12T08:32:50.677Z,997.77
2017-07-12T08:33:50.684Z,997.70
2017-07-12T08:34:50.681Z,997.69
2017-07-12T08:35:50.684Z,997.68
2017-07-12T08:36:50.682Z,997.70
2017-07-12T08:37:50.681Z,997.71
2017-07-12T08:38:50.685Z,997.70
2017-07-12T08:39:50.681Z,997.68
2017-07-12T08:40:50.685Z,997.72
2017-07-12T08:41:50.683Z,997.70
2017-07-12T08:42:50.683Z,997.68
2017-07-12T08:43:50.685Z,997.70
2017-07-12T08:44:50.682Z,997.72
2017-07-12T08:45:50.684Z,997.69
2017-07-12T08:46:50.685Z,997.64
2017-07-12T08:47:50.684Z,997.68
2017-07-12T08:48:50.686Z,997.64
2017-07-12T08:49:50.687Z,997.54
2017-07-12T08:50:50.665Z,997.56
2017-07-12T08:51:50.689Z,997.57
2017-07-12T08:52:50.715Z,997.62
2017-07-12T08:53:50.616Z,997.50
2017-07-12T08:54:50.691Z,997.54
2017-07-12T08:55:50.625Z,997.56
2017-07-12T08:56:50.630Z,997.60
2017-07-12T08:57:50.687Z,997.56
2017-07-12T08:58:50.686Z,997.59
2017-07-12T08:59:50.719Z,997.47
2017-07-12T09:00:50.717Z,997.46
2017-07-12T09:01:50.713Z,997.48
2017-07-12T09:02:50.707Z,997.47
2017-07-12T09:03:50.635Z,997.48
2017-07-12T09:04:50.710Z,997.53
2017-07-12T09:05:50.716Z,997.47
2017-07-12T09:06:50.719Z,997.54
2017-07-12T09:07:50.712Z,997.45
2017-07-12T09:08:50.659Z,997.42
2017-07-12T09:09:50.719Z,997.56
2017-07-12T09:10:50.722Z,997.52
2017-07-12T09:11:50.825Z,997.47
2017-07-12T09:12:50.715Z,997.48
2017-07-12T09:13:50.643Z,997.44
2017-07-12T09:14:50.697Z,997.40
2017-07-12T09:15:50.646Z,997.48
2017-07-12T09:16:50.632Z,997.47
2017-07-12T09:17:50.720Z,997.49
2017-07-12T09:18:50.725Z,997.45
2017-07-12T09:19:50.747Z,997.44
2017-07-12T09:20:50.624Z,997.41
2017-07-12T09:21:50.707Z,997.40
2017-07-12T09:22:50.707Z,997.44
2017-07-12T09:23:50.706Z,997.47
2017-07-12T09:33:50.713Z,997.33
2017-07-12T09:34:50.712Z,997.33
2017-07-12T09:35:50.714Z,997.35
2017-07-12T09:36:50.711Z,997.27
2017-07-12T09:37:50.715Z,997.30
2017-07-12T09:38:50.729Z,997.34
2017-07-12T09:39:50.805Z,997.32
2017-07-12T09:40:50.733Z,997.30
2017-07-12T09:41:50.649Z,997.26
2017-07-12T09:42:50.735Z,997.33
2017-07-12T09:43:50.694Z,997.27
2017-07-12T09:44:50.760Z,997.26
2017-07-12T09:45:50.669Z,997.31
2017-07-12T09:46:50.741Z,997.24
2017-07-12T09:47:50.739Z,997.23
2017-07-12T09:48:50.730Z,997.21
2017-07-12T09:49:50.739Z,997.19
2017-07-12T09:50:50.648Z,997.18
2017-07-12T09:51:50.746Z,997.18
2017-07-12T09:52:50.689Z,997.09
2017-07-12T09:53:50.738Z,997.04
2017-07-12T09:54:50.747Z,997.10
2017-07-12T09:55:50.739Z,997.11
2017-07-12T09:56:50.662Z,997.09
2017-07-12T09:57:50.656Z,997.01
2017-07-12T09:58:50.654Z,997.09
2017-07-12T09:59:50.664Z,997.05
2017-07-12T10:00:50.659Z,996.97
2017-07-12T10:01:50.718Z,997.01
2017-07-12T10:02:50.687Z,997.01
2017-07-12T10:03:50.751Z,996.99
2017-07-12T10:04:50.746Z,996.93
2017-07-12T10:05:50.744Z,996.89
2017-07-12T10:06:50.743Z,996.90
2017-07-12T10:07:50.715Z,996.86
2017-07-12T10:08:50.750Z,996.88
2017-07-12T10:09:50.761Z,996.93
2017-07-12T10:10:50.750Z,996.91
2017-07-12T10:11:50.753Z,996.90
2017-07-12T10:12:50.751Z,996.90
2017-07-12T10:13:50.753Z,996.90
2017-07-12T10:14:50.720Z,996.91
2017-07-12T10:15:50.747Z,996.89
2017-07-12T10:16:50.693Z,996.85
2017-07-12T10:17:50.747Z,996.81
2017-07-12T10:18:50.742Z,996.83
2017-07-12T10:19:50.671Z,996.77
2017-07-12T10:20:50.758Z,996.77
2017-07-12T10:21:50.761Z,996.80
2017-07-12T10:22:50.737Z,996.78
2017-07-12T10:23:50.738Z,996.79
2017-07-12T10:24:50.740Z,996.79
2017-07-12T10:25:50.739Z,996.78
2017-07-12T10:26:50.743Z,996.77
2017-07-12T10:27:50.740Z,996.84
2017-07-12T10:28:50.743Z,996.85
2017-07-12T10:29:50.719Z,996.83
2017-07-12T10:30:50.826Z,996.83
2017-07-12T10:31:50.749Z,996.84
2017-07-12T10:32:50.748Z,996.83
2017-07-12T10:33:50.746Z,996.81
2017-07-12T10:34:50.748Z,996.84
2017-07-12T10:35:50.749Z,996.83
2017-07-12T10:36:50.743Z,996.85
2017-07-12T10:37:50.749Z,996.76
2017-07-12T10:38:50.746Z,996.82
2017-07-12T10:39:50.745Z,996.84
2017-07-12T10:40:50.685Z,996.86
2017-07-12T10:41:50.778Z,996.83
2017-07-12T10:42:50.693Z,996.86
2017-07-12T10:43:50.772Z,996.88
2017-07-12T10:44:50.747Z,996.80
2017-07-12T10:45:50.877Z,996.82
2017-07-12T10:46:50.769Z,996.84
2017-07-12T10:47:50.693Z,996.80
2017-07-12T10:48:50.782Z,996.80
2017-07-12T10:49:50.774Z,996.76
2017-07-12T10:50:50.746Z,996.82
2017-07-12T10:51:50.743Z,996.83
2017-07-12T10:52:50.747Z,996.78
2017-07-12T10:53:50.744Z,996.81
2017-07-12T10:54:50.744Z,996.82
2017-07-12T10:55:50.749Z,996.79
2017-07-12T10:56:50.749Z,996.81
2017-07-12T10:57:50.760Z,996.80
2017-07-12T10:58:50.754Z,996.81
2017-07-12T10:59:50.850Z,996.86
2017-07-12T11:00:50.760Z,996.86
2017-07-12T11:01:50.756Z,996.87
2017-07-12T11:02:50.762Z,996.83
2017-07-12T11:03:50.762Z,996.85
2017-07-12T11:04:50.761Z,996.81
2017-07-12T11:05:50.765Z,996.81
2017-07-12T11:06:50.766Z,996.83
2017-07-12T11:07:50.762Z,996.84
2017-07-12T11:08:50.763Z,996.84
2017-07-12T11:09:50.767Z,996.84
2017-07-12T11:10:50.763Z,996.80
2017-07-12T11:11:50.765Z,996.80
2017-07-12T11:12:50.763Z,996.76
2017-07-12T11:13:50.765Z,996.79
2017-07-12T11:14:50.765Z,996.78
2017-07-12T11:15:50.733Z,996.81
2017-07-12T11:16:50.694Z,996.81
2017-07-12T11:17:50.685Z,996.82
2017-07-12T11:18:50.730Z,996.73
2017-07-12T11:19:50.736Z,996.73
2017-07-12T11:20:50.731Z,996.74
2017-07-12T11:21:50.690Z,996.73
2017-07-12T11:22:50.690Z,996.68
2017-07-12T11:23:50.689Z,996.70
2017-07-12T11:24:50.696Z,996.71
2017-07-12T11:25:50.799Z,996.71
2017-07-12T11:26:50.711Z,996.69
2017-07-12T11:27:50.843Z,996.65
2017-07-12T11:28:50.706Z,996.63
2017-07-12T11:29:50.715Z,996.66
2017-07-12T11:30:50.710Z,996.61
2017-07-12T11:31:50.797Z,996.59
2017-07-12T11:32:50.718Z,996.61
2017-07-12T11:33:50.793Z,996.67
2017-07-12T11:34:50.800Z,996.65
2017-07-12T11:35:50.784Z,996.65
2017-07-12T11:36:50.783Z,996.63
2017-07-12T11:37:50.778Z,996.57
2017-07-12T11:38:50.777Z,996.58
2017-07-12T11:39:50.778Z,996.56
2017-07-12T11:40:50.790Z,996.56
2017-07-12T11:41:50.788Z,996.49
2017-07-12T11:42:50.788Z,996.50
2017-07-12T11:43:50.791Z,996.56
2017-07-12T11:44:50.787Z,996.51
2017-07-12T11:45:50.785Z,996.49
2017-07-12T11:46:50.784Z,996.47
2017-07-12T11:47:50.786Z,996.41
2017-07-12T11:48:50.785Z,996.40
2017-07-12T11:49:50.796Z,996.46
2017-07-12T11:50:50.789Z,996.44
2017-07-12T11:51:50.788Z,996.41
2017-07-12T11:52:50.788Z,996.35
2017-07-12T11:53:50.790Z,996.34
2017-07-12T11:54:50.788Z,996.33
2017-07-12T11:55:50.799Z,996.31
2017-07-12T11:56:50.793Z,996.34
2017-07-12T11:57:50.821Z,996.33
2017-07-12T11:58:50.793Z,996.29
2017-07-12T11:59:50.792Z,996.29
2017-07-12T12:00:50.794Z,996.30
2017-07-12T12:01:50.792Z,996.32
2017-07-12T12:02:50.793Z,996.33
2017-07-12T12:03:50.792Z,996.35
2017-07-12T12:04:50.796Z,996.36
2017-07-12T12:05:50.795Z,996.40
2017-07-12T12:06:50.796Z,996.37
2017-07-12T12:07:50.795Z,996.36
2017-07-12T12:08:50.796Z,996.38
2017-07-12T12:09:50.797Z,996.35
2017-07-12T12:10:50.800Z,996.32
2017-07-12T12:11:50.799Z,996.32
2017-07-12T12:12:50.801Z,996.31
2017-07-12T12:13:50.798Z,996.30
2017-07-12T12:14:50.801Z,996.34
2017-07-12T12:15:50.799Z,996.28
2017-07-12T12:16:50.801Z,996.25
2017-07-12T12:17:50.802Z,996.26
2017-07-12T12:18:50.804Z,996.26
2017-07-12T12:19:50.804Z,996.22
2017-07-12T12:20:50.804Z,996.27
2017-07-12T12:21:50.804Z,996.22
2017-07-12T12:22:50.806Z,996.29
2017-07-12T12:23:50.807Z,996.25
2017-07-12T12:24:50.805Z,996.25
2017-07-12T12:25:50.808Z,996.31
2017-07-12T12:26:50.810Z,996.22
2017-07-12T12:27:50.807Z,996.23
2017-07-12T12:28:50.833Z,996.28
2017-07-12T12:29:50.812Z,996.28
2017-07-12T12:30:50.812Z,996.26
2017-07-12T12:31:50.811Z,996.28
2017-07-12T12:32:50.811Z,996.32
2017-07-12T12:33:50.811Z,996.29
2017-07-12T12:34:50.813Z,996.21
2017-07-12T12:35:50.814Z,996.30